Time;durP1;ratioP1;P1;durP2;ratioP2;P2;SDS_P1;SDS_P2;PMS_P1;PMS_P2;Temp;Humidity;BMP_temperature;BMP_pressure;BME280_temperature;BME280_humidity;BME280_pressure;Samples;Min_cycle;Max_cycle;Signal;HPM_P1;HPM_P2
2024/01/06 00:00:49;;;;;;;1.65;1.45;;;17.40;82.60;;;;;;5058826;28;45388;-54
2024/01/06 00:03:17;;;;;;;2.05;1.45;;;17.40;82.50;;;;;;5058938;28;45277;-54
2024/01/06 00:05:44;;;;;;;2.22;1.60;;;17.40;83.10;;;;;;5059549;28;45319;-54
2024/01/06 00:08:11;;;;;;;2.00;1.60;;;17.40;83.10;;;;;;5055140;28;46247;-54
2024/01/06 00:10:37;;;;;;;2.60;1.60;;;17.40;83.10;;;;;;5058585;28;45211;-54
2024/01/06 00:13:04;;;;;;;2.80;1.67;;;17.40;83.30;;;;;;5058819;28;45151;-54
2024/01/06 00:15:31;;;;;;;3.65;1.75;;;17.40;84.70;;;;;;5054765;28;45313;-53
2024/01/06 00:17:58;;;;;;;2.47;1.90;;;17.40;83.20;;;;;;5059272;28;45285;-53
2024/01/06 00:20:26;;;;;;;2.38;1.80;;;17.40;83.60;;;;;;5054018;28;45185;-53
2024/01/06 00:22:52;;;;;;;2.13;1.88;;;17.40;83.40;;;;;;5058825;28;45309;-53
2024/01/06 00:25:19;;;;;;;2.10;1.75;;;17.50;84.20;;;;;;5059868;28;45253;-53
2024/01/06 00:27:46;;;;;;;2.65;1.80;;;17.50;83.50;;;;;;5057899;28;47018;-53
2024/01/06 00:30:13;;;;;;;2.83;1.80;;;17.50;83.40;;;;;;5051775;28;45160;-53
2024/01/06 00:32:40;;;;;;;1.90;1.50;;;17.50;84.10;;;;;;5058765;28;45137;-53
2024/01/06 00:35:08;;;;;;;2.58;1.85;;;17.50;83.60;;;;;;5058138;28;45142;-53
2024/01/06 00:37:36;;;;;;;2.42;1.75;;;17.50;83.10;;;;;;5057697;28;47030;-53
2024/01/06 00:40:04;;;;;;;2.85;2.10;;;17.50;84.80;;;;;;5057547;28;45390;-53
2024/01/06 00:42:30;;;;;;;1.85;1.63;;;17.50;84.30;;;;;;5056533;28;45262;-53
2024/01/06 00:44:57;;;;;;;2.38;1.80;;;17.40;84.20;;;;;;5053248;28;45098;-53
2024/01/06 00:47:24;;;;;;;2.75;1.90;;;17.50;84.50;;;;;;5057936;28;45170;-53
2024/01/06 00:49:51;;;;;;;2.45;2.00;;;17.40;84.90;;;;;;5060187;28;45138;-53
2024/01/06 00:52:17;;;;;;;2.53;1.83;;;17.40;85.00;;;;;;5055243;28;45381;-53
2024/01/06 00:54:46;;;;;;;3.05;2.03;;;17.40;84.80;;;;;;5056917;28;45299;-53
2024/01/06 00:57:13;;;;;;;2.67;1.63;;;17.40;85.50;;;;;;5059353;28;47414;-53
2024/01/06 00:59:40;;;;;;;2.30;1.90;;;17.40;84.30;;;;;;5055153;28;45097;-53
2024/01/06 01:02:07;;;;;;;2.10;1.88;;;17.50;84.80;;;;;;5057528;28;45328;-53
2024/01/06 01:04:33;;;;;;;2.50;2.00;;;17.50;85.10;;;;;;5059466;28;45358;-53
2024/01/06 01:07:00;;;;;;;1.75;1.50;;;17.50;84.40;;;;;;5058000;28;47949;-53
2024/01/06 01:09:27;;;;;;;2.40;1.70;;;17.50;84.60;;;;;;5057471;28;45457;-53
2024/01/06 01:11:55;;;;;;;2.53;2.00;;;17.50;84.20;;;;;;5058177;28;45158;-53
2024/01/06 01:14:22;;;;;;;2.20;1.83;;;17.50;84.70;;;;;;5051772;28;45312;-54
2024/01/06 01:16:49;;;;;;;2.58;1.73;;;17.50;84.10;;;;;;5057425;28;45441;-53
2024/01/06 01:19:16;;;;;;;2.20;1.83;;;17.50;85.40;;;;;;5055478;28;45347;-53
2024/01/06 01:21:42;;;;;;;2.17;1.83;;;17.50;85.80;;;;;;5052761;28;45400;-53
2024/01/06 01:24:09;;;;;;;2.90;2.00;;;17.50;85.10;;;;;;5055597;28;45225;-53
2024/01/06 01:26:36;;;;;;;3.97;2.15;;;17.50;85.40;;;;;;5057061;28;45294;-53
2024/01/06 01:29:04;;;;;;;2.60;1.92;;;17.50;85.60;;;;;;5059101;28;45209;-53
2024/01/06 01:31:31;;;;;;;2.72;1.92;;;17.50;86.10;;;;;;5054523;28;45240;-54
2024/01/06 01:33:57;;;;;;;2.55;1.77;;;17.40;85.70;;;;;;5057913;28;46004;-53
2024/01/06 01:36:24;;;;;;;3.22;2.60;;;17.40;85.90;;;;;;5056125;28;46231;-53
2024/01/06 01:38:51;;;;;;;3.17;2.40;;;17.40;86.10;;;;;;5055859;28;45511;-54
2024/01/06 01:41:18;;;;;;;2.47;2.28;;;17.40;86.10;;;;;;5057190;28;45229;-54
2024/01/06 01:43:46;;;;;;;3.63;2.60;;;17.50;85.60;;;;;;5057760;28;45154;-54
2024/01/06 01:46:14;;;;;;;3.25;2.25;;;17.50;85.90;;;;;;5052404;28;45259;-54
2024/01/06 01:48:41;;;;;;;3.40;2.50;;;17.50;85.80;;;;;;5057570;28;45313;-53
2024/01/06 01:51:10;;;;;;;3.45;2.45;;;17.50;85.30;;;;;;5057462;28;45428;-53
2024/01/06 01:53:37;;;;;;;3.65;2.45;;;17.50;85.80;;;;;;5057251;28;45194;-53
2024/01/06 01:56:05;;;;;;;3.03;2.35;;;17.50;85.90;;;;;;5055095;28;46550;-53
2024/01/06 01:58:31;;;;;;;3.15;2.70;;;17.50;85.30;;;;;;5055671;28;45246;-53
2024/01/06 02:00:59;;;;;;;2.60;2.08;;;17.50;85.90;;;;;;5054706;28;45291;-53
2024/01/06 02:03:27;;;;;;;3.00;2.47;;;17.50;85.90;;;;;;5057451;28;45422;-54
2024/01/06 02:05:54;;;;;;;3.33;2.38;;;17.50;86.90;;;;;;5057052;28;48215;-53
2024/01/06 02:08:21;;;;;;;3.67;2.97;;;17.50;86.70;;;;;;5045449;28;44733;-53
2024/01/06 02:10:48;;;;;;;4.20;3.03;;;17.50;86.10;;;;;;5056502;28;45139;-53
2024/01/06 02:13:14;;;;;;;3.03;2.55;;;17.50;86.70;;;;;;5054742;28;45139;-53
2024/01/06 02:15:41;;;;;;;7.13;3.40;;;17.50;86.90;;;;;;5049691;28;45319;-53
2024/01/06 02:18:08;;;;;;;3.90;3.30;;;17.40;86.40;;;;;;5056455;28;45334;-53
2024/01/06 02:20:36;;;;;;;3.90;3.10;;;17.50;86.40;;;;;;5055396;28;45251;-54
2024/01/06 02:23:05;;;;;;;3.88;2.95;;;17.50;86.80;;;;;;5056936;28;45193;-54
2024/01/06 02:25:31;;;;;;;4.10;2.97;;;17.50;86.40;;;;;;5052471;28;46177;-54
2024/01/06 02:27:58;;;;;;;5.18;3.55;;;17.50;86.10;;;;;;5053470;28;45473;-53
2024/01/06 02:30:25;;;;;;;5.13;3.28;;;17.50;86.10;;;;;;5053583;28;45311;-53
2024/01/06 02:32:51;;;;;;;5.05;3.20;;;17.50;86.80;;;;;;5054822;28;45446;-53
2024/01/06 02:35:18;;;;;;;4.47;3.30;;;17.50;86.30;;;;;;5051558;28;45102;-53
2024/01/06 02:37:45;;;;;;;5.20;4.15;;;17.50;85.70;;;;;;5051756;28;45318;-53
2024/01/06 02:40:14;;;;;;;5.22;4.18;;;17.50;83.40;;;;;;5051704;28;45403;-53
2024/01/06 02:42:42;;;;;;;6.40;4.93;;;17.50;83.20;;;;;;5049689;28;45299;-53
2024/01/06 02:45:09;;;;;;;6.47;4.35;;;17.40;83.40;;;;;;5053659;28;46846;-53
2024/01/06 02:47:36;;;;;;;7.30;4.88;;;17.40;83.40;;;;;;5054439;28;45555;-53
2024/01/06 02:50:03;;;;;;;5.78;4.47;;;17.40;83.60;;;;;;5054857;28;44666;-54
2024/01/06 02:52:30;;;;;;;6.68;4.90;;;17.40;83.50;;;;;;5057716;28;44815;-53
2024/01/06 02:54:57;;;;;;;6.55;5.00;;;17.40;83.00;;;;;;5054813;28;46217;-54
2024/01/06 02:57:25;;;;;;;6.70;5.15;;;17.40;83.50;;;;;;5055459;28;45394;-54
2024/01/06 02:59:51;;;;;;;7.07;5.68;;;17.40;83.60;;;;;;5054807;28;45194;-54
2024/01/06 03:02:18;;;;;;;6.85;5.25;;;17.40;83.30;;;;;;5053711;28;45308;-54
2024/01/06 03:04:45;;;;;;;7.82;5.50;;;17.40;82.70;;;;;;5055760;28;46572;-54
2024/01/06 03:07:12;;;;;;;6.75;5.13;;;17.40;81.60;;;;;;5057249;28;45126;-54
2024/01/06 03:09:39;;;;;;;6.40;5.20;;;17.40;82.40;;;;;;5054412;28;45206;-54
2024/01/06 03:12:07;;;;;;;7.50;5.07;;;17.50;82.80;;;;;;5056143;28;45216;-54
2024/01/06 03:14:35;;;;;;;7.97;5.63;;;17.40;81.80;;;;;;5054674;28;47153;-54
2024/01/06 03:17:02;;;;;;;7.07;5.47;;;17.50;82.70;;;;;;5056119;28;46110;-54
2024/01/06 03:19:29;;;;;;;8.15;5.95;;;17.50;82.10;;;;;;5056158;28;45521;-54
2024/01/06 03:21:56;;;;;;;8.43;6.15;;;17.40;82.70;;;;;;5057465;28;45297;-53
2024/01/06 03:24:24;;;;;;;7.82;5.53;;;17.40;82.20;;;;;;5054642;28;46139;-54
2024/01/06 03:26:51;;;;;;;6.93;5.78;;;17.40;81.60;;;;;;5057096;28;45171;-54
2024/01/06 03:29:18;;;;;;;8.70;6.40;;;17.40;82.10;;;;;;5052140;28;45176;-54
2024/01/06 03:31:47;;;;;;;7.93;6.10;;;17.40;82.20;;;;;;5056312;28;45178;-54
2024/01/06 03:34:14;;;;;;;8.18;5.80;;;17.40;82.70;;;;;;5057108;28;46224;-54
2024/01/06 03:36:41;;;;;;;9.65;6.20;;;17.40;82.20;;;;;;5057684;28;45168;-54
2024/01/06 03:39:08;;;;;;;8.18;5.78;;;17.40;80.80;;;;;;5056146;28;45178;-54
2024/01/06 03:41:35;;;;;;;8.88;6.40;;;17.40;81.40;;;;;;5056584;28;45194;-54
2024/01/06 03:44:01;;;;;;;8.45;6.30;;;17.40;82.80;;;;;;5060833;28;47215;-54
2024/01/06 03:46:28;;;;;;;7.78;6.00;;;17.40;81.00;;;;;;5057946;28;45025;-54
2024/01/06 03:48:56;;;;;;;9.60;6.18;;;17.40;80.80;;;;;;5059602;28;45318;-54
2024/01/06 03:51:23;;;;;;;7.13;5.90;;;17.40;80.80;;;;;;5059897;28;45209;-54
2024/01/06 03:53:50;;;;;;;7.22;5.53;;;17.40;80.80;;;;;;5059247;28;45406;-54
2024/01/06 03:56:17;;;;;;;7.72;6.03;;;17.40;80.30;;;;;;5058133;28;45304;-54
2024/01/06 03:58:43;;;;;;;7.35;5.88;;;17.40;80.40;;;;;;5060133;28;45234;-54
2024/01/06 04:01:10;;;;;;;7.32;5.20;;;17.40;80.50;;;;;;5056961;28;45299;-54
2024/01/06 04:03:38;;;;;;;7.32;5.35;;;17.40;80.70;;;;;;5059669;28;46510;-54
2024/01/06 04:06:06;;;;;;;6.78;5.68;;;17.40;80.00;;;;;;5059978;28;45435;-54
2024/01/06 04:08:33;;;;;;;7.22;5.50;;;17.40;79.60;;;;;;5058753;28;45138;-54
2024/01/06 04:11:00;;;;;;;6.55;5.28;;;17.30;80.00;;;;;;5059248;28;45141;-54
2024/01/06 04:13:27;;;;;;;6.45;5.25;;;17.30;79.40;;;;;;5059415;28;45173;-54
2024/01/06 04:15:54;;;;;;;6.45;4.90;;;17.30;78.20;;;;;;5057222;28;45406;-54
2024/01/06 04:18:20;;;;;;;6.35;4.80;;;17.30;78.70;;;;;;5059759;28;45236;-53
2024/01/06 04:20:47;;;;;;;6.22;4.70;;;17.30;77.90;;;;;;5059389;28;45345;-54
2024/01/06 04:23:15;;;;;;;5.40;4.47;;;17.30;78.40;;;;;;5059318;28;45290;-54
2024/01/06 04:25:42;;;;;;;5.63;4.05;;;17.30;78.00;;;;;;5057199;28;45184;-54
2024/01/06 04:28:09;;;;;;;4.97;3.95;;;17.30;78.70;;;;;;5057698;28;45141;-54
2024/01/06 04:30:36;;;;;;;5.72;4.30;;;17.30;76.90;;;;;;5058357;28;45197;-54
2024/01/06 04:33:02;;;;;;;5.15;3.90;;;17.30;77.70;;;;;;5057888;28;45168;-54
2024/01/06 04:35:29;;;;;;;4.93;3.67;;;17.30;78.30;;;;;;5058352;28;44728;-54
2024/01/06 04:37:56;;;;;;;5.45;4.03;;;17.30;78.00;;;;;;5057171;28;45519;-54
2024/01/06 04:40:24;;;;;;;5.47;3.83;;;17.30;78.40;;;;;;5057065;28;45276;-54
2024/01/06 04:42:51;;;;;;;4.15;3.40;;;17.30;77.80;;;;;;5059087;28;46981;-54
2024/01/06 04:45:19;;;;;;;3.83;3.22;;;17.30;77.00;;;;;;5056185;28;45137;-54
2024/01/06 04:47:46;;;;;;;3.95;3.20;;;17.30;76.80;;;;;;5059459;28;45224;-54
2024/01/06 04:50:12;;;;;;;4.57;3.38;;;17.30;75.90;;;;;;5058450;28;45412;-54
2024/01/06 04:52:39;;;;;;;4.32;3.60;;;17.30;75.80;;;;;;5054564;28;47001;-54
2024/01/06 04:55:06;;;;;;;4.07;3.08;;;17.30;75.20;;;;;;5058750;28;45281;-54
2024/01/06 04:57:35;;;;;;;3.58;2.88;;;17.30;74.80;;;;;;5056453;28;45146;-54
2024/01/06 05:00:02;;;;;;;3.97;2.97;;;17.30;74.40;;;;;;5059133;28;45401;-54
2024/01/06 05:02:29;;;;;;;3.17;2.78;;;17.30;75.20;;;;;;5057557;28;45279;-54
2024/01/06 05:04:55;;;;;;;4.00;3.00;;;17.30;75.00;;;;;;5057867;28;45670;-54
2024/01/06 05:07:22;;;;;;;4.22;2.85;;;17.20;74.50;;;;;;5057143;28;44623;-54
2024/01/06 05:09:49;;;;;;;3.58;2.88;;;17.30;75.90;;;;;;5058818;28;45135;-54
2024/01/06 05:12:16;;;;;;;3.58;2.65;;;17.30;75.90;;;;;;5056544;28;45403;-54
2024/01/06 05:14:44;;;;;;;3.22;2.50;;;17.30;75.70;;;;;;5055525;28;44674;-54
2024/01/06 05:17:11;;;;;;;3.30;2.58;;;17.30;74.80;;;;;;5059075;28;45218;-54
2024/01/06 05:19:37;;;;;;;4.15;3.00;;;17.30;75.30;;;;;;5058172;28;45181;-53
2024/01/06 05:22:04;;;;;;;3.60;2.65;;;17.30;74.90;;;;;;5058189;28;46555;-54
2024/01/06 05:24:31;;;;;;;3.58;2.97;;;17.30;74.30;;;;;;5058492;28;45246;-53
2024/01/06 05:26:58;;;;;;;3.85;2.83;;;17.20;74.00;;;;;;5054456;28;45195;-53
2024/01/06 05:29:25;;;;;;;3.95;2.90;;;17.20;73.70;;;;;;5059207;28;44863;-54
2024/01/06 05:31:54;;;;;;;3.33;2.70;;;17.20;73.60;;;;;;5052666;28;45134;-54
2024/01/06 05:34:20;;;;;;;3.30;2.65;;;17.20;73.00;;;;;;5057841;28;45401;-53
2024/01/06 05:36:47;;;;;;;3.88;3.10;;;17.20;73.10;;;;;;5057232;28;45092;-54
2024/01/06 05:39:13;;;;;;;3.40;2.78;;;17.20;73.00;;;;;;5056934;28;44842;-53
2024/01/06 05:41:40;;;;;;;3.53;2.47;;;17.20;72.20;;;;;;5057760;28;45209;-53
2024/01/06 05:44:07;;;;;;;4.22;3.10;;;17.20;73.70;;;;;;5057942;28;45620;-54
2024/01/06 05:46:35;;;;;;;3.72;2.78;;;17.20;75.30;;;;;;5058309;28;45323;-54
2024/01/06 05:49:04;;;;;;;3.78;3.00;;;17.10;73.30;;;;;;5058782;28;44840;-54
2024/01/06 05:51:31;;;;;;;3.75;2.63;;;17.20;75.80;;;;;;5056155;28;46156;-53
2024/01/06 05:53:57;;;;;;;3.53;2.75;;;17.10;75.70;;;;;;5057123;28;45273;-54
2024/01/06 05:56:25;;;;;;;3.60;2.78;;;17.10;76.60;;;;;;5057299;28;45290;-54
2024/01/06 05:58:52;;;;;;;4.00;2.65;;;17.10;74.80;;;;;;5055567;28;45439;-54
2024/01/06 06:01:19;;;;;;;3.40;2.70;;;17.20;75.10;;;;;;5054039;28;47178;-54
2024/01/06 06:03:45;;;;;;;3.20;2.60;;;17.10;74.30;;;;;;5057533;28;45242;-53
2024/01/06 06:06:13;;;;;;;3.60;2.78;;;17.10;73.50;;;;;;5052366;28;45145;-53
2024/01/06 06:08:41;;;;;;;3.72;2.70;;;17.10;72.90;;;;;;5056231;28;45249;-54
2024/01/06 06:11:10;;;;;;;4.28;3.15;;;17.10;72.40;;;;;;5057645;28;46370;-54
2024/01/06 06:13:37;;;;;;;4.18;3.22;;;17.10;72.80;;;;;;5058071;28;45061;-53
2024/01/06 06:16:05;;;;;;;4.28;3.13;;;17.10;72.60;;;;;;5054616;28;45205;-54
2024/01/06 06:18:32;;;;;;;3.83;2.80;;;17.10;71.60;;;;;;5057465;28;45276;-53
2024/01/06 06:20:59;;;;;;;4.18;3.20;;;17.10;71.30;;;;;;5055203;28;47277;-53
2024/01/06 06:23:28;;;;;;;5.35;3.38;;;17.10;72.40;;;;;;5057840;28;44652;-54
2024/01/06 06:25:55;;;;;;;4.28;3.15;;;17.10;72.80;;;;;;5056847;28;45210;-54
2024/01/06 06:28:22;;;;;;;4.32;3.42;;;17.10;74.10;;;;;;5057067;28;45301;-53
2024/01/06 06:30:48;;;;;;;4.15;3.17;;;17.10;73.30;;;;;;5056079;28;47124;-53
2024/01/06 06:33:15;;;;;;;4.43;3.10;;;17.10;72.90;;;;;;5055325;28;45217;-53
2024/01/06 06:35:42;;;;;;;4.10;3.20;;;17.10;73.80;;;;;;5057962;28;45259;-54
2024/01/06 06:38:09;;;;;;;3.47;2.85;;;17.10;73.80;;;;;;5058157;28;45374;-54
2024/01/06 06:40:37;;;;;;;4.07;3.20;;;17.10;74.20;;;;;;5056116;28;47078;-53
2024/01/06 06:43:04;;;;;;;3.85;3.22;;;17.10;73.60;;;;;;5056597;28;45290;-53
2024/01/06 06:45:30;;;;;;;3.90;2.88;;;17.10;72.10;;;;;;5056499;28;45157;-53
2024/01/06 06:47:58;;;;;;;4.60;3.20;;;17.10;71.40;;;;;;5057962;28;45546;-53
2024/01/06 06:50:24;;;;;;;4.07;3.08;;;17.10;71.50;;;;;;5055350;28;45216;-54
2024/01/06 06:52:52;;;;;;;4.57;3.20;;;17.10;70.60;;;;;;5055459;28;45604;-54
2024/01/06 06:55:19;;;;;;;5.03;3.78;;;17.10;70.00;;;;;;5057662;28;44716;-54
2024/01/06 06:57:47;;;;;;;3.92;3.28;;;17.10;70.30;;;;;;5057236;28;44820;-53
2024/01/06 07:00:14;;;;;;;4.05;3.17;;;17.10;70.00;;;;;;5056579;28;47691;-53
2024/01/06 07:02:42;;;;;;;4.60;3.55;;;17.10;69.60;;;;;;5056216;28;45212;-53
2024/01/06 07:05:09;;;;;;;3.78;3.00;;;17.10;71.70;;;;;;5057531;28;45118;-53
2024/01/06 07:07:35;;;;;;;3.63;2.90;;;17.10;71.00;;;;;;5056826;28;45465;-53
2024/01/06 07:10:03;;;;;;;4.20;3.20;;;17.10;71.50;;;;;;5057282;28;47132;-53
2024/01/06 07:12:30;;;;;;;3.22;2.63;;;17.10;72.80;;;;;;5055164;28;45257;-53
2024/01/06 07:14:59;;;;;;;3.03;2.53;;;17.10;72.20;;;;;;5055669;28;45199;-53
2024/01/06 07:17:26;;;;;;;4.00;2.92;;;17.10;72.20;;;;;;5058758;28;45122;-53
2024/01/06 07:19:53;;;;;;;3.42;2.78;;;17.10;73.70;;;;;;5059547;28;46308;-54
2024/01/06 07:22:20;;;;;;;3.47;3.10;;;17.00;72.20;;;;;;5060867;28;45166;-54
2024/01/06 07:24:47;;;;;;;4.32;2.83;;;17.00;71.90;;;;;;5060790;28;45111;-53
2024/01/06 07:27:14;;;;;;;3.40;2.40;;;17.00;73.40;;;;;;5058705;28;45388;-53
2024/01/06 07:29:41;;;;;;;4.80;2.33;;;17.00;72.40;;;;;;5059726;28;46364;-53
2024/01/06 07:32:09;;;;;;;3.70;2.78;;;17.10;75.70;;;;;;5060861;28;46078;-54
2024/01/06 07:34:36;;;;;;;3.42;2.90;;;17.10;71.50;;;;;;5060376;28;45409;-54
2024/01/06 07:37:03;;;;;;;4.13;3.20;;;17.10;70.50;;;;;;5060261;28;45314;-53
2024/01/06 07:39:30;;;;;;;3.85;3.08;;;17.10;70.00;;;;;;5059216;28;46547;-54
2024/01/06 07:41:56;;;;;;;3.70;2.70;;;17.10;69.90;;;;;;5058978;28;45120;-53
2024/01/06 07:44:24;;;;;;;4.20;3.30;;;17.10;69.50;;;;;;5060188;28;45367;-53
2024/01/06 07:46:51;;;;;;;4.72;3.50;;;17.00;70.00;;;;;;5059246;28;44896;-54
2024/01/06 07:49:19;;;;;;;4.15;2.95;;;17.00;70.40;;;;;;5060854;28;45375;-53
2024/01/06 07:51:46;;;;;;;4.07;3.03;;;17.00;71.10;;;;;;5059086;28;45183;-53
2024/01/06 07:54:13;;;;;;;4.50;2.92;;;17.00;69.20;;;;;;5058431;28;45165;-53
2024/01/06 07:56:39;;;;;;;4.05;3.05;;;17.00;69.80;;;;;;5056693;28;45320;-53
2024/01/06 07:59:06;;;;;;;3.65;2.97;;;17.00;70.50;;;;;;5055592;28;46543;-52
2024/01/06 08:01:33;;;;;;;8.05;2.55;;;17.00;70.60;;;;;;5054436;28;46087;-52
2024/01/06 08:04:00;;;;;;;8.23;3.20;;;17.10;75.30;;;;;;5055934;28;45374;-52
2024/01/06 08:06:28;;;;;;;7.85;3.28;;;17.00;71.10;;;;;;5059201;28;45145;-53
2024/01/06 08:08:55;;;;;;;6.13;3.30;;;17.00;69.60;;;;;;5051713;28;47455;-52
2024/01/06 08:11:22;;;;;;;7.55;3.50;;;17.00;69.20;;;;;;5057687;28;44655;-52
2024/01/06 08:13:49;;;;;;;6.45;3.30;;;17.00;70.90;;;;;;5059216;28;46097;-52
2024/01/06 08:16:16;;;;;;;4.50;2.90;;;17.00;69.50;;;;;;5056273;28;44855;-52
2024/01/06 08:18:43;;;;;;;5.65;3.70;;;17.00;69.30;;;;;;5054747;28;45381;-52
2024/01/06 08:21:09;;;;;;;5.22;2.88;;;17.00;69.60;;;;;;5051836;28;45430;-52
2024/01/06 08:23:37;;;;;;;13.82;4.28;;;17.00;69.40;;;;;;5050573;28;45269;-53
2024/01/06 08:26:06;;;;;;;5.93;3.63;;;17.00;71.40;;;;;;5052615;28;45193;-53
2024/01/06 08:28:32;;;;;;;3.22;2.58;;;17.00;70.20;;;;;;5047619;28;45404;-53
2024/01/06 08:30:59;;;;;;;3.83;2.50;;;17.00;72.10;;;;;;5050925;28;44722;-53
2024/01/06 08:33:26;;;;;;;3.13;2.63;;;16.90;71.40;;;;;;5052710;28;45250;-53
2024/01/06 08:35:53;;;;;;;6.65;2.88;;;16.90;72.20;;;;;;5052185;28;45122;-52
2024/01/06 08:38:22;;;;;;;3.92;2.70;;;16.90;71.10;;;;;;5053870;28;47379;-53
2024/01/06 08:40:50;;;;;;;3.65;2.83;;;16.90;71.40;;;;;;5048589;28;45452;-53
2024/01/06 08:43:17;;;;;;;3.83;2.88;;;17.00;72.40;;;;;;5055001;28;45232;-53
2024/01/06 08:45:44;;;;;;;3.17;2.55;;;17.00;70.20;;;;;;5054226;28;44934;-53
2024/01/06 08:48:11;;;;;;;4.03;2.83;;;17.00;70.00;;;;;;5054743;28;47016;-53
2024/01/06 08:50:38;;;;;;;3.35;2.85;;;17.00;70.60;;;;;;5054269;28;45449;-53
2024/01/06 08:53:05;;;;;;;3.90;2.67;;;17.10;70.70;;;;;;5053642;28;45617;-53
2024/01/06 08:55:32;;;;;;;3.67;2.55;;;17.10;70.90;;;;;;5054903;28;45097;-53
2024/01/06 08:58:00;;;;;;;4.07;2.92;;;17.10;71.10;;;;;;5055549;28;47493;-53
2024/01/06 09:00:27;;;;;;;4.00;2.65;;;17.10;71.20;;;;;;5055785;28;45934;-53
2024/01/06 09:02:54;;;;;;;3.30;2.58;;;17.10;71.30;;;;;;5058966;28;45635;-53
2024/01/06 09:05:21;;;;;;;3.22;2.50;;;17.10;71.10;;;;;;5059965;28;45273;-53
2024/01/06 09:07:50;;;;;;;3.63;2.25;;;17.10;71.20;;;;;;5058687;28;45263;-53
2024/01/06 09:10:17;;;;;;;3.38;2.50;;;17.20;71.20;;;;;;5059282;28;45174;-53
2024/01/06 09:12:42;;;;;;;2.80;2.20;;;17.20;71.00;;;;;;5057204;28;45289;-53
2024/01/06 09:15:11;;;;;;;2.70;2.30;;;17.20;71.20;;;;;;5059253;28;45301;-53
2024/01/06 09:17:38;;;;;;;2.72;1.92;;;17.20;71.10;;;;;;5058385;28;46470;-53
2024/01/06 09:20:06;;;;;;;3.90;2.55;;;17.20;71.00;;;;;;5059813;28;45250;-53
2024/01/06 09:22:33;;;;;;;2.78;2.10;;;17.20;71.30;;;;;;5058560;28;45217;-53
2024/01/06 09:25:00;;;;;;;4.00;2.40;;;17.20;71.00;;;;;;5058955;28;45343;-53
2024/01/06 09:27:26;;;;;;;4.03;2.47;;;17.20;71.20;;;;;;5059549;28;46663;-53
2024/01/06 09:29:53;;;;;;;3.53;2.40;;;17.20;71.40;;;;;;5058464;28;45255;-53
2024/01/06 09:32:22;;;;;;;2.83;2.10;;;17.20;71.50;;;;;;5057314;28;45348;-53
2024/01/06 09:34:49;;;;;;;2.97;2.03;;;17.20;71.40;;;;;;5059897;28;45450;-53
2024/01/06 09:37:16;;;;;;;2.30;2.00;;;17.30;71.90;;;;;;5058829;28;46198;-53
2024/01/06 09:39:43;;;;;;;2.95;2.45;;;17.30;71.90;;;;;;5057400;28;45126;-53
2024/01/06 09:42:11;;;;;;;3.35;2.20;;;17.30;71.80;;;;;;5057245;28;45264;-53
2024/01/06 09:44:38;;;;;;;2.88;2.25;;;17.30;71.90;;;;;;5057710;28;44977;-53
2024/01/06 09:47:05;;;;;;;8.20;2.60;;;17.30;71.70;;;;;;5058955;28;47066;-53
2024/01/06 09:49:38;;;;;;;3.38;2.13;;;17.30;71.80;;;;;;5058658;28;45105;-52
2024/01/06 09:52:12;;;;;;;3.85;2.58;;;17.30;71.90;;;;;;5058331;28;45165;-53
2024/01/06 09:54:42;;;;;;;3.45;2.30;;;17.30;71.80;;;;;;5059338;28;44856;-52
2024/01/06 09:57:09;;;;;;;2.75;2.20;;;17.40;71.70;;;;;;5058189;28;46567;-52
2024/01/06 09:59:37;;;;;;;3.90;2.70;;;17.40;71.40;;;;;;5055962;28;45253;-52
2024/01/06 10:02:05;;;;;;;3.65;2.67;;;17.40;71.40;;;;;;5057283;28;45275;-52
2024/01/06 10:04:33;;;;;;;2.80;2.30;;;17.40;71.40;;;;;;5060166;28;45169;-53
2024/01/06 10:07:00;;;;;;;3.25;2.20;;;17.40;71.60;;;;;;5058227;28;45137;-52
2024/01/06 10:09:28;;;;;;;3.20;2.28;;;17.40;71.60;;;;;;5056723;28;45222;-52
2024/01/06 10:11:57;;;;;;;3.80;2.50;;;17.40;71.40;;;;;;5056070;28;45235;-53
2024/01/06 10:14:24;;;;;;;4.18;2.38;;;17.40;71.50;;;;;;5056483;28;45241;-53
2024/01/06 10:16:52;;;;;;;3.50;2.45;;;17.40;71.50;;;;;;5058347;28;46548;-52
2024/01/06 10:19:19;;;;;;;3.72;2.45;;;17.40;71.40;;;;;;5055639;28;45203;-53
2024/01/06 10:21:47;;;;;;;4.13;2.47;;;17.40;71.50;;;;;;5058199;28;45360;-53
2024/01/06 10:24:14;;;;;;;3.95;2.50;;;17.40;71.50;;;;;;5058147;28;45996;-52
2024/01/06 10:26:41;;;;;;;3.17;2.53;;;17.40;71.50;;;;;;5056250;28;45315;-53
2024/01/06 10:29:07;;;;;;;2.50;2.10;;;17.40;71.20;;;;;;5056524;28;45302;-52
2024/01/06 10:31:34;;;;;;;3.35;2.28;;;17.40;71.50;;;;;;5056047;28;45195;-53
2024/01/06 10:34:01;;;;;;;2.95;2.20;;;17.40;71.50;;;;;;5057181;28;45360;-53
2024/01/06 10:36:31;;;;;;;3.45;2.40;;;17.50;71.50;;;;;;5057991;28;46329;-52
2024/01/06 10:38:59;;;;;;;3.25;2.47;;;17.50;72.40;;;;;;5055794;28;45189;-52
2024/01/06 10:41:27;;;;;;;2.90;2.28;;;17.50;71.40;;;;;;5057276;28;44664;-52
2024/01/06 10:43:55;;;;;;;4.75;2.30;;;17.50;71.60;;;;;;5058475;28;45115;-53
2024/01/06 10:46:25;;;;;;;3.35;2.10;;;17.40;71.40;;;;;;5056189;28;47012;-53
2024/01/06 10:48:56;;;;;;;5.03;2.35;;;17.40;71.40;;;;;;5058252;28;45257;-52
2024/01/06 10:51:26;;;;;;;3.30;2.40;;;17.40;71.40;;;;;;5058067;28;45214;-52
2024/01/06 10:53:54;;;;;;;4.13;2.53;;;17.30;71.80;;;;;;5060743;28;44717;-52
2024/01/06 10:56:24;;;;;;;4.97;2.72;;;17.30;71.40;;;;;;5061579;28;45173;-52
2024/01/06 10:58:52;;;;;;;2.85;2.47;;;17.20;71.20;;;;;;5061200;28;45210;-52
2024/01/06 11:01:24;;;;;;;3.67;2.78;;;17.20;71.20;;;;;;5059463;28;45424;-52
2024/01/06 11:03:51;;;;;;;4.55;3.00;;;17.20;70.90;;;;;;5060194;28;45343;-52
2024/01/06 11:06:19;;;;;;;3.70;2.60;;;17.20;70.50;;;;;;5061027;28;47102;-53
2024/01/06 11:08:52;;;;;;;3.58;2.92;;;17.20;70.50;;;;;;5059879;28;45168;-53
2024/01/06 11:11:19;;;;;;;3.88;2.83;;;17.20;70.10;;;;;;5061179;28;45118;-53
2024/01/06 11:13:48;;;;;;;5.10;3.05;;;17.10;69.00;;;;;;5061846;28;45363;-53
2024/01/06 11:16:36;;;;;;;5.70;3.00;;;17.10;69.60;;;;;;5058754;28;48394;-53
2024/01/06 11:19:03;;;;;;;3.80;2.85;;;17.10;68.70;;;;;;5061149;28;45135;-52
2024/01/06 11:21:36;;;;;;;4.60;3.10;;;17.10;68.70;;;;;;5059009;28;45280;-53
2024/01/06 11:24:15;;;;;;;4.63;2.97;;;17.10;67.70;;;;;;5061790;28;45238;-53
2024/01/06 11:26:44;;;;;;;4.35;2.85;;;17.10;67.20;;;;;;5061044;28;45432;-53
2024/01/06 11:29:12;;;;;;;4.72;3.33;;;17.10;67.00;;;;;;5059452;28;45197;-53
2024/01/06 11:31:39;;;;;;;4.18;3.22;;;17.10;66.60;;;;;;5060240;28;45263;-53
2024/01/06 11:34:15;;;;;;;4.95;3.00;;;17.10;66.30;;;;;;5060836;28;45273;-53
2024/01/06 11:36:44;;;;;;;5.00;3.60;;;17.10;65.70;;;;;;5061456;28;45185;-53
2024/01/06 11:39:35;;;;;;;5.82;3.88;;;17.10;65.90;;;;;;5059362;28;45326;-53
2024/01/06 11:42:03;;;;;;;4.03;2.97;;;17.10;65.90;;;;;;5058923;28;44696;-53
2024/01/06 11:44:35;;;;;;;4.22;2.90;;;17.10;65.00;;;;;;5061010;28;45196;-53
2024/01/06 11:47:02;;;;;;;4.82;3.28;;;17.10;65.50;;;;;;5058805;28;45273;-53
2024/01/06 11:49:30;;;;;;;4.80;3.10;;;17.10;65.20;;;;;;5060079;28;44674;-53
2024/01/06 11:51:57;;;;;;;4.68;2.97;;;17.20;65.60;;;;;;5059360;28;44693;-53
2024/01/06 11:54:24;;;;;;;5.03;3.42;;;17.20;65.20;;;;;;5060686;28;45584;-53
2024/01/06 11:56:53;;;;;;;4.32;3.10;;;17.20;65.20;;;;;;5060584;28;47518;-53
2024/01/06 11:59:19;;;;;;;5.70;3.47;;;17.20;65.10;;;;;;5058825;28;45283;-53
2024/01/06 12:01:48;;;;;;;6.13;3.78;;;17.20;65.60;;;;;;5060508;28;45257;-53
2024/01/06 12:04:16;;;;;;;6.32;3.80;;;17.20;65.60;;;;;;5061112;28;45130;-53
2024/01/06 12:06:43;;;;;;;4.95;3.28;;;17.20;65.60;;;;;;5060396;28;46640;-53
2024/01/06 12:09:15;;;;;;;4.53;3.30;;;17.20;65.70;;;;;;5060328;28;45145;-53
2024/01/06 12:11:44;;;;;;;6.30;3.75;;;17.20;65.80;;;;;;5058791;28;45549;-53
2024/01/06 12:14:11;;;;;;;4.75;3.75;;;17.20;65.80;;;;;;5058870;28;45308;-53
2024/01/06 12:16:38;;;;;;;5.00;3.40;;;17.20;65.70;;;;;;5060070;28;48322;-53
2024/01/06 12:19:06;;;;;;;5.20;3.28;;;17.20;65.60;;;;;;5059859;28;45111;-53
2024/01/06 12:21:37;;;;;;;4.55;3.38;;;17.20;65.70;;;;;;5060495;28;45114;-53
2024/01/06 12:24:28;;;;;;;6.18;3.63;;;17.20;65.50;;;;;;5059828;28;45420;-53
2024/01/06 12:26:57;;;;;;;4.80;3.45;;;17.20;66.60;;;;;;5043492;28;45905;-53
2024/01/06 12:29:27;;;;;;;6.10;3.58;;;17.20;66.00;;;;;;5060084;28;45176;-53
2024/01/06 12:31:54;;;;;;;4.55;3.10;;;17.20;66.00;;;;;;5059491;28;45358;-53
2024/01/06 12:34:23;;;;;;;5.28;3.28;;;17.20;65.90;;;;;;5059682;28;45234;-53
2024/01/06 12:36:54;;;;;;;5.07;3.50;;;17.20;65.90;;;;;;5060243;28;45220;-53
2024/01/06 12:39:22;;;;;;;4.80;3.25;;;17.20;65.90;;;;;;5058739;28;45293;-53
2024/01/06 12:41:51;;;;;;;4.82;3.05;;;17.20;66.10;;;;;;5059701;28;45204;-53
2024/01/06 12:44:18;;;;;;;4.15;3.10;;;17.30;66.00;;;;;;5057281;28;45447;-53
2024/01/06 12:46:45;;;;;;;5.43;3.70;;;17.30;65.90;;;;;;5059757;28;47915;-53
2024/01/06 12:49:12;;;;;;;6.25;3.55;;;17.20;65.90;;;;;;5060485;28;45156;-53